메인 페이지
METAR-TAF:

METAR-TAF

공항 :

헬싱키 반타 국제공항

헬싱키, 핀란드

위도: 60-19N, 경도: 024-58E, 고도: 51m

현재 날씨관측

예보는 9분 전, 02:50시(UTC)에 발표되었습니다.
남남동8kt
온도 2°C
습도 93%
기압 1002 hPa
시정: 5000m
고도 500ft 상공 흐림
약한이슬비

METAR: EFHK 190250Z 15008KT 5000 -DZ OVC005 02/01 Q1002 BECMG 4000 BKN004

시각: 04:59 (02:59 UTC)

예보

예보는 30분 전, 02:29시(UTC)에 발표되었습니다.
예보 대상 시간: 19일 03시부터 20일 03시까지 (UTC)
남동5kt
시정: 7000m
고도 600ft 상공 구름 많음
약한비, 이슬비
전환 중
19일 03시부터 19일 05시까지 (UTC)
시정: 4000m
고도 400ft 상공 구름 많음
박무
일시적
19일 06시부터 19일 08시까지 (UTC)
시정: 0700m
고도 200ft 상공
안개
전환 중
19일 12시부터 19일 14시까지 (UTC)
시정 10km 이상
고도 1200ft 상공 구름 많음
전환 중
19일 15시부터 19일 17시까지 (UTC)
고도 1500ft 상공 구름 많음

TAF: EFHK 190229Z 1903/2003 14005KT 7000 -RADZ BKN006 BECMG 1903/1905 4000 BR BKN004 TEMPO 1906/1908 0700 FG VV002 BECMG 1912/1914 9999 NSW BKN012 BECMG 1915/1917 BKN015

4,000개 이상의 공항 관측 자료 및 예보 (METAR 및 TAF 보고).

지도상에서 검색 가능한 기상관측소가 노란 점과 빨간 점으로 표시되어 있습니다.

기상관측소 명을 보려면 표시 위로 마우스를 이동하세요.

날씨 관측과 예보를 보려면 클릭하세요.

지도 변경 : 확대하려면 엑스 표시가 있는 녹색 버튼, 축소하려면 빼기 표시가 있는 녹색 버튼, 다음 페이지의 지도를 보려면 녹색 화살표를 클릭하세요.


METAR-TAF: